This is the latest recevied weather packets stored in our database for station/object NG7N. If no packets are shown the sender has not sent any weather packets the latest 10 day(s).
| Time | Temp. | Humidity | Pressure | Rain* | Wind** | Luminosity | Snow |
|---|---|---|---|---|---|---|---|
| 1777762764 | 18.89° C | 63% | 1014.8 hPa | 0 mm | - | - | - |
| 1777762164 | 18.89° C | 64% | 1014.8 hPa | 0 mm | - | - | - |
| 1777761264 | 18.33° C | 64% | 1014.8 hPa | 0 mm | - | - | - |
| 1777759164 | 19.44° C | 59% | 1015.2 hPa | 0 mm | - | - | - |
| 1777758264 | 18.89° C | 61% | 1015.3 hPa | 0 mm | - | - | - |
| 1777757964 | 18.89° C | 61% | 1015.3 hPa | 0 mm | - | - | - |
| 1777756764 | 18.33° C | 68% | 1015.6 hPa | 0 mm | - | - | - |
| 1777755564 | 17.22° C | 70% | 1015.6 hPa | 0 mm | - | - | - |
| 1777754964 | 17.22° C | 72% | 1015.6 hPa | 0 mm | - | - | - |
| 1777754363 | 17.22° C | 72% | 1015.7 hPa | 0 mm | - | - | - |
| 1777753764 | 17.22° C | 72% | 1015.9 hPa | 0 mm | - | - | - |
| 1777753164 | 16.67° C | 73% | 1015.9 hPa | 0 mm | - | - | - |
| 1777752564 | 16.67° C | 73% | 1016.1 hPa | 0 mm | - | - | - |
| 1777751964 | 16.67° C | 73% | 1016.2 hPa | 0 mm | - | - | - |
| 1777750464 | 15.56° C | 75% | 1016.5 hPa | 0 mm | - | - | - |
| 1777748364 | 15° C | 78% | 1016.7 hPa | 0 mm | - | - | - |
| 1777747764 | 14.44° C | 80% | 1016.7 hPa | 0 mm | - | - | - |
| 1777747164 | 14.44° C | 79% | 1016.7 hPa | 0 mm | - | - | - |
| 1777746564 | 14.44° C | 79% | 1016.7 hPa | 0 mm | - | - | - |
| 1777744763 | 13.89° C | 81% | 1016.9 hPa | 0 mm | - | - | - |
| 1777743264 | 14.44° C | 80% | 1016.9 hPa | 0 mm | - | - | - |
| 1777741764 | 13.33° C | 83% | 1017.3 hPa | 0 mm | - | - | - |
| 1777741164 | 12.78° C | 85% | 1017.2 hPa | 0 mm | - | - | - |
| 1777740564 | 12.22° C | 87% | 1017.2 hPa | 0 mm | - | - | - |
| 1777738764 | 11.67° C | 87% | 1017.2 hPa | 0 mm | - | - | - |
* Rain latest hour (hover to see other rain measurements)
** Current wind speed in m/s (hover to see current wind gust speed)